Ashton, WV

4:18 PM EDT on August 23, 2014 (GMT -0400)
Ohio University | Change Station
CLOSE
Current Station
Airport
Location: Athens,
Elevation: 764 ft
Nearby Weather Stations

Elev 764 ft 39.21 °N, 82.23 °W | Updated 23 minutes ago

Scattered Clouds
Scattered Clouds
84 °F
Feels Like 88 °F
N
6
Wind Variable Wind from North

Today
High -- | Low -- °F
--% Chance of Precip.
Yesterday
High -- | Low -- °F
Precip. -- in
6:49 AM 8:11 PM
Waning Crescent, 3% visible
Pressure 29.99 in
Visibility 10.0 miles
Clouds Scattered Clouds 3200 ft
Scattered Clouds 8000 ft
Heat Index 88 °F
Dew Point 69 °F
Humidity 60%
Rainfall 0.00 in
Snow Depth Not available.
UV 6 out of 12
Pollen 8.90 out of 12
Air Quality Not available.
Flu Activity Not available.
METAR KUNI 231955Z AUTO 36005KT 10SM SCT032 SCT080 29/21 A2999 RMK AO2 T02900205

More Conditions Fewer Conditions

Pressure 29.99 in
Visibility 10.0 miles
Clouds Scattered Clouds 3200 ft
Scattered Clouds 8000 ft
Heat Index 88 °F
Dew Point 69 °F
Humidity 60%
Rainfall 0.00 in
Snow Depth Not available.
UV 6 out of 12
Pollen 8.90 out of 12
Air Quality Not available.
Flu Activity Not available.
METAR KUNI 231955Z AUTO 36005KT 10SM SCT032 SCT080 29/21 A2999 RMK AO2 T02900205

More Conditions Fewer Conditions

10-Day Weather Forecast

Almanac

Astronomy

Aug. 23, 2014 Rise Set
Actual Time 6:49 AM EDT 8:11 PM EDT
Civil Twilight 6:21 AM EDT 8:39 PM EDT
Nautical Twilight 5:48 AM EDT 9:12 PM EDT
Astronomical Twilight 5:13 AM EDT 9:47 PM EDT
Moon 5:05 AM EDT 6:55 PM EDT
Length of Visible Light 14h 17m
Length of Day
13h 22m
Tomorrow will be 2m 20s shorter.
Waning Crescent, 3% of the Moon is Illuminated
Today
Waning Crescent
Aug 25
New
Sep 2
First Quarter
Sep 8
Full
Sep 15
Last Quarter

Today's Extremes

State Highs State Lows

Community

WunderPhotos

Upload Photos

1,746,597 photos uploaded!

WunderBlogs® & News

Nearby

Snow Depth

Station Depth Elevation
No new snow has been reported.

Earthquake Activity

City Distance Mag. Time & Date
No recent earthquake activity has been reported nearby.
Minimum magnitude displayed is 2.5.

Coastal Water Temperatures

Place Temperature
No Stations Reporting

Nearby Weather Stations